NOZ6YE ENGM-LEPA
Flight info
| Callsign | NOZ6YE |
|---|---|
| Flight time | N/A |
| Altitude | 35000 |
| Route | VIPPA DCT BINRO DCT LUTIR DCT IBESA/N0459F350 DCT LIMGO DCT SUTAL DCT GTQ DCT POGOL DCT LASAT DCT MOROK DCT GILIR DCT GEVEA DCT INCUS DCT BALSI DCT RETNO DCT TUPOX DCT MTG DCT DIVKO DCT VATIR DCT PIVUS DCT BODEQ DCT VERSO L129 LUNIK |
| Aircraft | B738/M-SDE2E3FGHIRWXY/LB1 |
Departure
| Time | N/A |
|---|---|
| Airport | Oslo-Gardermoen International Airport (ENGM) |
Arrival
| Time | 2026-05-05 14:44 |
|---|---|
| Airport | Palma de Mallorca Airport (LEPA) |
| Time | Latitude | Longitude | Altitude | Speed | Heading |
|---|---|---|---|---|---|
| 2026-05-05 13:09 | 46.60226 | 6.17772 | 34912 ft | 426 kts | 187° |
| 2026-05-05 13:09 | 46.57270 | 6.17382 | 34907 ft | 426 kts | 187° |
| 2026-05-05 13:10 | 46.51363 | 6.16603 | 34911 ft | 426 kts | 187° |
| 2026-05-05 13:10 | 46.45455 | 6.15826 | 34910 ft | 426 kts | 187° |
| 2026-05-05 13:11 | 46.39547 | 6.15051 | 34919 ft | 426 kts | 188° |
| 2026-05-05 13:11 | 46.33646 | 6.14278 | 34910 ft | 426 kts | 188° |
| 2026-05-05 13:12 | 46.27735 | 6.13505 | 34913 ft | 426 kts | 188° |
| 2026-05-05 13:12 | 46.21899 | 6.12524 | 34913 ft | 424 kts | 191° |
| 2026-05-05 13:13 | 46.16073 | 6.11193 | 34914 ft | 424 kts | 192° |
| 2026-05-05 13:13 | 46.10240 | 6.09854 | 34913 ft | 424 kts | 192° |
| 2026-05-05 13:14 | 46.04413 | 6.08555 | 34923 ft | 424 kts | 191° |
| 2026-05-05 13:14 | 45.98569 | 6.07269 | 34907 ft | 424 kts | 192° |
| 2026-05-05 13:15 | 45.92748 | 6.05990 | 34904 ft | 422 kts | 192° |
| 2026-05-05 13:15 | 45.86951 | 6.04719 | 34908 ft | 421 kts | 192° |
| 2026-05-05 13:16 | 45.81197 | 6.03455 | 34914 ft | 420 kts | 192° |
| 2026-05-05 13:16 | 45.75421 | 6.02180 | 34909 ft | 419 kts | 193° |
| 2026-05-05 13:17 | 45.70589 | 6.01115 | 34921 ft | 419 kts | 193° |
| 2026-05-05 13:17 | 45.64856 | 5.99855 | 35026 ft | 421 kts | 193° |
| 2026-05-05 13:18 | 45.61966 | 5.99220 | 35250 ft | 421 kts | 192° |
| 2026-05-05 13:18 | 45.59073 | 5.98587 | 35523 ft | 419 kts | 193° |
| 2026-05-05 13:18 | 45.56183 | 5.97955 | 35758 ft | 419 kts | 193° |
| 2026-05-05 13:18 | 45.53301 | 5.97324 | 35916 ft | 420 kts | 193° |
| 2026-05-05 13:19 | 45.50409 | 5.96691 | 36048 ft | 422 kts | 193° |
| 2026-05-05 13:19 | 45.47510 | 5.96047 | 36195 ft | 422 kts | 194° |
| 2026-05-05 13:19 | 45.44636 | 5.95226 | 36353 ft | 420 kts | 195° |
| 2026-05-05 13:19 | 45.41780 | 5.94337 | 36537 ft | 420 kts | 197° |
| 2026-05-05 13:20 | 45.38931 | 5.93426 | 36745 ft | 419 kts | 197° |
| 2026-05-05 13:20 | 45.36088 | 5.92517 | 36827 ft | 418 kts | 196° |
| 2026-05-05 13:20 | 45.30412 | 5.90720 | 36911 ft | 419 kts | 197° |
| 2026-05-05 13:21 | 45.24686 | 5.88916 | 36919 ft | 423 kts | 196° |
| 2026-05-05 13:21 | 45.18919 | 5.87128 | 36916 ft | 425 kts | 196° |
| 2026-05-05 13:22 | 45.13141 | 5.85343 | 36913 ft | 425 kts | 196° |
| 2026-05-05 13:22 | 45.07409 | 5.83573 | 36902 ft | 424 kts | 196° |
| 2026-05-05 13:23 | 45.01668 | 5.81806 | 36877 ft | 420 kts | 197° |
| 2026-05-05 13:23 | 44.95972 | 5.80052 | 36901 ft | 417 kts | 197° |
| 2026-05-05 13:24 | 44.90306 | 5.78311 | 36905 ft | 415 kts | 197° |
| 2026-05-05 13:24 | 44.84675 | 5.76584 | 36884 ft | 413 kts | 197° |
| 2026-05-05 13:25 | 44.79083 | 5.74873 | 36903 ft | 410 kts | 197° |
| 2026-05-05 13:25 | 44.73550 | 5.73176 | 36898 ft | 409 kts | 197° |
| 2026-05-05 13:26 | 44.67982 | 5.71472 | 36911 ft | 410 kts | 197° |
| 2026-05-05 13:26 | 44.62405 | 5.69783 | 36929 ft | 410 kts | 197° |
| 2026-05-05 13:27 | 44.56834 | 5.68096 | 36908 ft | 409 kts | 197° |
| 2026-05-05 13:27 | 44.51249 | 5.66404 | 36914 ft | 410 kts | 197° |
| 2026-05-05 13:28 | 44.45672 | 5.64715 | 36903 ft | 410 kts | 197° |
| 2026-05-05 13:28 | 44.40094 | 5.63032 | 36910 ft | 411 kts | 197° |
| 2026-05-05 13:29 | 44.34687 | 5.60658 | 36919 ft | 406 kts | 205° |
| 2026-05-05 13:29 | 44.29437 | 5.57719 | 36916 ft | 405 kts | 205° |
| 2026-05-05 13:30 | 44.24227 | 5.54838 | 36932 ft | 406 kts | 205° |
| 2026-05-05 13:30 | 44.18964 | 5.51951 | 36919 ft | 405 kts | 205° |
| 2026-05-05 13:31 | 44.13706 | 5.49076 | 36939 ft | 407 kts | 205° |
| 2026-05-05 13:31 | 44.08425 | 5.46193 | 36902 ft | 408 kts | 205° |
| 2026-05-05 13:32 | 44.03134 | 5.43311 | 36924 ft | 408 kts | 205° |
| 2026-05-05 13:32 | 43.97845 | 5.40435 | 36927 ft | 408 kts | 205° |
| 2026-05-05 13:33 | 43.92537 | 5.37563 | 36924 ft | 409 kts | 205° |
| 2026-05-05 13:33 | 43.87235 | 5.34705 | 36910 ft | 409 kts | 205° |
| 2026-05-05 13:34 | 43.81959 | 5.31863 | 36932 ft | 409 kts | 205° |
| 2026-05-05 13:34 | 43.76646 | 5.29005 | 36923 ft | 409 kts | 205° |
| 2026-05-05 13:35 | 43.71336 | 5.26153 | 36905 ft | 409 kts | 205° |
| 2026-05-05 13:35 | 43.66021 | 5.23309 | 36904 ft | 409 kts | 205° |
| 2026-05-05 13:36 | 43.60713 | 5.20470 | 36911 ft | 409 kts | 205° |
| 2026-05-05 13:36 | 43.55413 | 5.17641 | 36940 ft | 409 kts | 205° |
| 2026-05-05 13:37 | 43.50111 | 5.14817 | 36922 ft | 408 kts | 205° |
| 2026-05-05 13:37 | 43.44820 | 5.12002 | 36935 ft | 408 kts | 205° |
| 2026-05-05 13:38 | 43.39544 | 5.09157 | 36936 ft | 406 kts | 208° |
| 2026-05-05 13:38 | 43.34792 | 5.05187 | 36944 ft | 401 kts | 217° |
| 2026-05-05 13:39 | 43.30206 | 5.00801 | 36927 ft | 401 kts | 217° |
| 2026-05-05 13:39 | 43.25614 | 4.96460 | 36928 ft | 401 kts | 217° |
| 2026-05-05 13:40 | 43.21087 | 4.92202 | 36937 ft | 401 kts | 217° |
| 2026-05-05 13:40 | 43.16485 | 4.87885 | 36933 ft | 401 kts | 217° |
| 2026-05-05 13:41 | 43.11871 | 4.83563 | 36908 ft | 401 kts | 217° |
| 2026-05-05 13:41 | 43.07272 | 4.79264 | 36920 ft | 400 kts | 217° |
| 2026-05-05 13:42 | 43.02512 | 4.75276 | 36938 ft | 402 kts | 212° |
| 2026-05-05 13:42 | 42.97602 | 4.71588 | 36928 ft | 402 kts | 212° |
| 2026-05-05 13:43 | 42.92726 | 4.67932 | 36931 ft | 402 kts | 212° |
| 2026-05-05 13:43 | 42.87837 | 4.64250 | 36929 ft | 401 kts | 213° |
| 2026-05-05 13:44 | 42.82951 | 4.60567 | 36932 ft | 401 kts | 213° |
| 2026-05-05 13:44 | 42.78075 | 4.56895 | 36964 ft | 401 kts | 212° |
| 2026-05-05 13:45 | 42.73182 | 4.53216 | 36938 ft | 401 kts | 212° |
| 2026-05-05 13:45 | 42.68293 | 4.49548 | 36926 ft | 402 kts | 212° |
| 2026-05-05 13:46 | 42.63398 | 4.45882 | 36928 ft | 401 kts | 212° |
| 2026-05-05 13:46 | 42.58495 | 4.42217 | 36929 ft | 401 kts | 212° |
| 2026-05-05 13:47 | 42.53601 | 4.38565 | 36926 ft | 402 kts | 212° |
| 2026-05-05 13:47 | 42.48740 | 4.34944 | 36917 ft | 400 kts | 213° |
| 2026-05-05 13:48 | 42.43867 | 4.31321 | 36928 ft | 399 kts | 213° |
| 2026-05-05 13:48 | 42.39002 | 4.27710 | 36928 ft | 398 kts | 213° |
| 2026-05-05 13:49 | 42.34142 | 4.24109 | 36928 ft | 398 kts | 213° |
| 2026-05-05 13:49 | 42.29292 | 4.20521 | 36922 ft | 397 kts | 213° |
| 2026-05-05 13:50 | 42.24452 | 4.16946 | 36933 ft | 396 kts | 213° |
| 2026-05-05 13:50 | 42.19610 | 4.13376 | 36928 ft | 396 kts | 213° |
| 2026-05-05 13:51 | 42.14770 | 4.09814 | 36926 ft | 396 kts | 213° |
| 2026-05-05 13:51 | 42.09965 | 4.06279 | 36921 ft | 395 kts | 213° |
| 2026-05-05 13:52 | 42.05139 | 4.02733 | 36921 ft | 395 kts | 213° |
| 2026-05-05 13:52 | 42.00307 | 3.99188 | 36923 ft | 395 kts | 213° |
| 2026-05-05 13:53 | 41.95468 | 3.95645 | 36924 ft | 396 kts | 213° |
| 2026-05-05 13:53 | 41.90304 | 3.92889 | 36905 ft | 405 kts | 200° |
| 2026-05-05 13:54 | 41.84716 | 3.91560 | 36913 ft | 409 kts | 196° |
| 2026-05-05 13:54 | 41.79109 | 3.90293 | 36919 ft | 408 kts | 197° |
| 2026-05-05 13:55 | 41.73542 | 3.89007 | 36919 ft | 408 kts | 197° |
| 2026-05-05 13:55 | 41.67953 | 3.87707 | 36918 ft | 407 kts | 197° |
| 2026-05-05 13:56 | 41.62359 | 3.86408 | 36918 ft | 407 kts | 197° |
| 2026-05-05 13:56 | 41.56773 | 3.85122 | 36921 ft | 407 kts | 197° |
| 2026-05-05 13:57 | 41.51181 | 3.83846 | 36918 ft | 407 kts | 197° |
| 2026-05-05 13:57 | 41.45598 | 3.82575 | 36911 ft | 406 kts | 197° |
| 2026-05-05 13:58 | 41.40021 | 3.81306 | 36925 ft | 406 kts | 197° |
| 2026-05-05 13:58 | 41.34483 | 3.80046 | 36934 ft | 407 kts | 197° |
| 2026-05-05 13:59 | 41.28874 | 3.78770 | 36511 ft | 410 kts | 196° |
| 2026-05-05 13:59 | 41.26084 | 3.78141 | 36130 ft | 403 kts | 196° |
| 2026-05-05 14:00 | 41.20636 | 3.76912 | 35191 ft | 392 kts | 196° |
| 2026-05-05 14:00 | 41.18827 | 3.76503 | 34867 ft | 389 kts | 196° |
| 2026-05-05 14:00 | 41.15361 | 3.75628 | 34225 ft | 376 kts | 201° |
| 2026-05-05 14:00 | 41.12922 | 3.74541 | 33721 ft | 363 kts | 207° |
| 2026-05-05 14:01 | 41.10594 | 3.73310 | 33184 ft | 357 kts | 207° |
| 2026-05-05 14:01 | 41.08296 | 3.72108 | 32696 ft | 353 kts | 207° |
| 2026-05-05 14:01 | 41.06022 | 3.70924 | 32179 ft | 350 kts | 207° |
| 2026-05-05 14:01 | 41.03766 | 3.69755 | 31723 ft | 347 kts | 207° |
| 2026-05-05 14:02 | 41.01518 | 3.68593 | 31273 ft | 345 kts | 207° |
| 2026-05-05 14:02 | 40.99290 | 3.67443 | 30827 ft | 343 kts | 207° |
| 2026-05-05 14:02 | 40.97079 | 3.66303 | 30391 ft | 340 kts | 207° |
| 2026-05-05 14:02 | 40.94876 | 3.65169 | 29964 ft | 338 kts | 207° |
| 2026-05-05 14:03 | 40.92719 | 3.64059 | 29458 ft | 336 kts | 207° |
| 2026-05-05 14:03 | 40.90515 | 3.62926 | 28948 ft | 334 kts | 207° |
| 2026-05-05 14:03 | 40.88383 | 3.61831 | 28468 ft | 332 kts | 207° |
| 2026-05-05 14:03 | 40.86235 | 3.60729 | 27987 ft | 330 kts | 207° |
| 2026-05-05 14:04 | 40.84100 | 3.59633 | 27493 ft | 328 kts | 207° |
| 2026-05-05 14:04 | 40.81976 | 3.58545 | 27041 ft | 326 kts | 207° |
| 2026-05-05 14:04 | 40.79868 | 3.57465 | 26610 ft | 324 kts | 207° |
| 2026-05-05 14:04 | 40.78480 | 3.56754 | 26329 ft | 323 kts | 207° |
| 2026-05-05 14:05 | 40.76390 | 3.55685 | 25912 ft | 321 kts | 207° |
| 2026-05-05 14:05 | 40.74316 | 3.54624 | 25498 ft | 319 kts | 207° |
| 2026-05-05 14:05 | 40.72251 | 3.53569 | 25087 ft | 318 kts | 207° |
| 2026-05-05 14:05 | 40.70195 | 3.52520 | 24686 ft | 316 kts | 207° |
| 2026-05-05 14:06 | 40.68147 | 3.51474 | 24281 ft | 315 kts | 207° |
| 2026-05-05 14:06 | 40.66102 | 3.50431 | 23891 ft | 314 kts | 207° |
| 2026-05-05 14:06 | 40.64064 | 3.49392 | 23501 ft | 313 kts | 207° |
| 2026-05-05 14:06 | 40.62030 | 3.48356 | 23042 ft | 312 kts | 207° |
| 2026-05-05 14:07 | 40.60009 | 3.47327 | 22583 ft | 311 kts | 206° |
| 2026-05-05 14:07 | 40.57991 | 3.46301 | 22133 ft | 310 kts | 206° |
| 2026-05-05 14:07 | 40.55980 | 3.45278 | 21692 ft | 310 kts | 206° |
| 2026-05-05 14:07 | 40.53971 | 3.44257 | 21255 ft | 309 kts | 206° |
| 2026-05-05 14:08 | 40.51967 | 3.43239 | 20826 ft | 308 kts | 206° |
| 2026-05-05 14:08 | 40.49992 | 3.42237 | 20407 ft | 308 kts | 206° |
| 2026-05-05 14:08 | 40.47997 | 3.41226 | 19989 ft | 307 kts | 206° |
| 2026-05-05 14:08 | 40.45995 | 3.40212 | 19575 ft | 307 kts | 206° |
| 2026-05-05 14:09 | 40.43958 | 3.39347 | 19151 ft | 312 kts | 195° |
| 2026-05-05 14:09 | 40.41761 | 3.39229 | 18745 ft | 318 kts | 185° |
| 2026-05-05 14:09 | 40.39541 | 3.39351 | 18345 ft | 319 kts | 184° |
| 2026-05-05 14:09 | 40.37321 | 3.39508 | 17911 ft | 319 kts | 183° |
| 2026-05-05 14:10 | 40.35109 | 3.39664 | 17460 ft | 318 kts | 183° |
| 2026-05-05 14:10 | 40.32926 | 3.39812 | 17021 ft | 318 kts | 183° |
| 2026-05-05 14:10 | 40.30718 | 3.39954 | 16578 ft | 317 kts | 183° |
| 2026-05-05 14:10 | 40.28513 | 3.40090 | 16148 ft | 316 kts | 183° |
| 2026-05-05 14:11 | 40.26318 | 3.40221 | 15720 ft | 315 kts | 182° |
| 2026-05-05 14:11 | 40.24126 | 3.40350 | 15300 ft | 315 kts | 182° |
| 2026-05-05 14:11 | 40.21940 | 3.40478 | 14886 ft | 314 kts | 182° |
| 2026-05-05 14:11 | 40.19756 | 3.40604 | 14457 ft | 314 kts | 182° |
| 2026-05-05 14:12 | 40.17579 | 3.40730 | 14056 ft | 313 kts | 181° |
| 2026-05-05 14:12 | 40.15403 | 3.40856 | 13650 ft | 312 kts | 181° |
| 2026-05-05 14:12 | 40.13236 | 3.40981 | 13203 ft | 311 kts | 181° |
| 2026-05-05 14:12 | 40.11072 | 3.41106 | 12749 ft | 311 kts | 181° |
| 2026-05-05 14:13 | 40.08913 | 3.41231 | 12337 ft | 311 kts | 181° |
| 2026-05-05 14:13 | 40.06777 | 3.41354 | 11902 ft | 311 kts | 181° |
| 2026-05-05 14:13 | 40.04612 | 3.41478 | 11475 ft | 311 kts | 181° |
| 2026-05-05 14:13 | 40.02464 | 3.41602 | 11068 ft | 305 kts | 180° |
| 2026-05-05 14:14 | 40.00362 | 3.41722 | 10671 ft | 299 kts | 180° |
| 2026-05-05 14:14 | 39.98304 | 3.41839 | 10273 ft | 293 kts | 180° |
| 2026-05-05 14:14 | 39.96281 | 3.41953 | 9893 ft | 288 kts | 181° |
| 2026-05-05 14:14 | 39.94303 | 3.42065 | 9549 ft | 280 kts | 181° |
| 2026-05-05 14:15 | 39.92375 | 3.42173 | 9199 ft | 274 kts | 181° |
| 2026-05-05 14:15 | 39.90493 | 3.42279 | 8858 ft | 268 kts | 181° |
| 2026-05-05 14:15 | 39.88654 | 3.42382 | 8549 ft | 262 kts | 181° |
| 2026-05-05 14:15 | 39.86873 | 3.42482 | 8248 ft | 258 kts | 181° |
| 2026-05-05 14:16 | 39.85084 | 3.42581 | 7949 ft | 257 kts | 180° |
| 2026-05-05 14:16 | 39.83298 | 3.42680 | 7651 ft | 257 kts | 180° |
| 2026-05-05 14:16 | 39.81512 | 3.42779 | 7359 ft | 257 kts | 180° |
| 2026-05-05 14:16 | 39.79726 | 3.42879 | 7067 ft | 257 kts | 180° |
| 2026-05-05 14:17 | 39.77940 | 3.42979 | 6782 ft | 256 kts | 180° |
| 2026-05-05 14:17 | 39.76157 | 3.43079 | 6494 ft | 256 kts | 180° |
| 2026-05-05 14:17 | 39.74376 | 3.43179 | 6190 ft | 256 kts | 180° |
| 2026-05-05 14:17 | 39.72611 | 3.43112 | 5908 ft | 251 kts | 198° |
| 2026-05-05 14:18 | 39.71126 | 3.42051 | 5623 ft | 244 kts | 227° |
| 2026-05-05 14:18 | 39.70212 | 3.40239 | 5377 ft | 240 kts | 249° |
| 2026-05-05 14:18 | 39.69903 | 3.38127 | 5131 ft | 238 kts | 267° |
| 2026-05-05 14:18 | 39.69934 | 3.35990 | 4929 ft | 236 kts | 271° |
| 2026-05-05 14:19 | 39.70016 | 3.33863 | 4700 ft | 234 kts | 272° |
| 2026-05-05 14:19 | 39.70103 | 3.31765 | 4503 ft | 231 kts | 271° |
| 2026-05-05 14:19 | 39.70184 | 3.29693 | 4271 ft | 229 kts | 271° |
| 2026-05-05 14:19 | 39.70259 | 3.27640 | 4079 ft | 227 kts | 271° |
| 2026-05-05 14:20 | 39.70330 | 3.25599 | 3870 ft | 226 kts | 270° |
| 2026-05-05 14:20 | 39.70397 | 3.23568 | 3677 ft | 225 kts | 271° |
| 2026-05-05 14:20 | 39.70463 | 3.21556 | 3574 ft | 220 kts | 270° |
| 2026-05-05 14:20 | 39.70526 | 3.19598 | 3463 ft | 214 kts | 270° |
| 2026-05-05 14:21 | 39.70586 | 3.17670 | 3370 ft | 214 kts | 271° |
| 2026-05-05 14:21 | 39.70646 | 3.15731 | 3294 ft | 216 kts | 270° |
| 2026-05-05 14:21 | 39.70704 | 3.13810 | 3201 ft | 216 kts | 270° |
| 2026-05-05 14:21 | 39.70763 | 3.11824 | 3101 ft | 223 kts | 270° |
| 2026-05-05 14:22 | 39.70819 | 3.09814 | 2996 ft | 222 kts | 266° |
| 2026-05-05 14:22 | 39.70405 | 3.07952 | 2877 ft | 213 kts | 237° |
| 2026-05-05 14:22 | 39.69640 | 3.06322 | 2793 ft | 210 kts | 239° |
| 2026-05-05 14:22 | 39.68914 | 3.04691 | 2683 ft | 207 kts | 238° |
| 2026-05-05 14:23 | 39.68202 | 3.03123 | 2554 ft | 196 kts | 237° |
| 2026-05-05 14:23 | 39.67517 | 3.01639 | 2500 ft | 187 kts | 238° |
| 2026-05-05 14:23 | 39.66865 | 3.00220 | 2514 ft | 180 kts | 237° |
| 2026-05-05 14:23 | 39.66220 | 2.98818 | 2536 ft | 180 kts | 237° |
| 2026-05-05 14:24 | 39.65553 | 2.97394 | 2521 ft | 189 kts | 237° |
| 2026-05-05 14:24 | 39.64858 | 2.95923 | 2489 ft | 191 kts | 238° |
| 2026-05-05 14:24 | 39.64178 | 2.94480 | 2503 ft | 185 kts | 237° |
| 2026-05-05 14:24 | 39.63536 | 2.93118 | 2477 ft | 168 kts | 236° |
| 2026-05-05 14:25 | 39.62944 | 2.91867 | 2498 ft | 159 kts | 238° |
| 2026-05-05 14:25 | 39.62364 | 2.90637 | 2492 ft | 157 kts | 237° |
| 2026-05-05 14:25 | 39.61808 | 2.89462 | 2362 ft | 158 kts | 237° |
| 2026-05-05 14:25 | 39.61228 | 2.88232 | 2159 ft | 155 kts | 236° |
| 2026-05-05 14:26 | 39.60692 | 2.87095 | 1990 ft | 143 kts | 236° |
| 2026-05-05 14:26 | 39.60184 | 2.86019 | 1799 ft | 136 kts | 236° |
| 2026-05-05 14:26 | 39.59677 | 2.84946 | 1628 ft | 140 kts | 237° |
| 2026-05-05 14:26 | 39.59166 | 2.83849 | 1408 ft | 143 kts | 238° |
| 2026-05-05 14:27 | 39.58684 | 2.82766 | 1225 ft | 138 kts | 236° |
| 2026-05-05 14:27 | 39.58179 | 2.81741 | 1086 ft | 135 kts | 234° |
| 2026-05-05 14:27 | 39.57660 | 2.80692 | 900 ft | 139 kts | 237° |
| 2026-05-05 14:27 | 39.57163 | 2.79613 | 700 ft | 140 kts | 238° |
| 2026-05-05 14:28 | 39.56672 | 2.78533 | 530 ft | 139 kts | 238° |
| 2026-05-05 14:28 | 39.56157 | 2.77464 | 358 ft | 142 kts | 237° |
| 2026-05-05 14:28 | 39.55628 | 2.76350 | 120 ft | 146 kts | 238° |
| 2026-05-05 14:28 | 39.55123 | 2.75269 | 44 ft | 129 kts | 235° |
| 2026-05-05 14:29 | 39.54624 | 2.74274 | 383 ft | 144 kts | 235° |
| 2026-05-05 14:29 | 39.54062 | 2.73133 | 1343 ft | 155 kts | 236° |
| 2026-05-05 14:29 | 39.53497 | 2.72001 | 2328 ft | 152 kts | 237° |
| 2026-05-05 14:29 | 39.52854 | 2.70790 | 2987 ft | 166 kts | 233° |
| 2026-05-05 14:30 | 39.51981 | 2.69677 | 3555 ft | 183 kts | 218° |
| 2026-05-05 14:30 | 39.50922 | 2.68975 | 4622 ft | 162 kts | 197° |
| 2026-05-05 14:30 | 39.49810 | 2.68915 | 5282 ft | 171 kts | 188° |
| 2026-05-05 14:30 | 39.48481 | 2.68751 | 5186 ft | 202 kts | 191° |
| 2026-05-05 14:31 | 39.47056 | 2.68529 | 4948 ft | 210 kts | 191° |
| 2026-05-05 14:31 | 39.45601 | 2.68293 | 4715 ft | 211 kts | 191° |
| 2026-05-05 14:31 | 39.44158 | 2.68072 | 4452 ft | 206 kts | 190° |
| 2026-05-05 14:31 | 39.42756 | 2.68064 | 4167 ft | 207 kts | 166° |
| 2026-05-05 14:32 | 39.41655 | 2.69239 | 3915 ft | 214 kts | 120° |
| 2026-05-05 14:32 | 39.41338 | 2.71127 | 3731 ft | 216 kts | 92° |
| 2026-05-05 14:32 | 39.41598 | 2.73038 | 3581 ft | 220 kts | 66° |
| 2026-05-05 14:32 | 39.42478 | 2.74630 | 3481 ft | 219 kts | 43° |
| 2026-05-05 14:33 | 39.43545 | 2.76040 | 3361 ft | 223 kts | 53° |
| 2026-05-05 14:33 | 39.44290 | 2.77815 | 3253 ft | 226 kts | 63° |
| 2026-05-05 14:33 | 39.45002 | 2.79637 | 3144 ft | 226 kts | 62° |
| 2026-05-05 14:33 | 39.45719 | 2.81446 | 3000 ft | 223 kts | 62° |
| 2026-05-05 14:34 | 39.46419 | 2.83214 | 2881 ft | 219 kts | 62° |
| 2026-05-05 14:34 | 39.47110 | 2.84959 | 2832 ft | 218 kts | 63° |
| 2026-05-05 14:34 | 39.47799 | 2.86704 | 2852 ft | 218 kts | 63° |
| 2026-05-05 14:34 | 39.48495 | 2.88465 | 3009 ft | 221 kts | 63° |
| 2026-05-05 14:35 | 39.49185 | 2.90216 | 3131 ft | 218 kts | 63° |
| 2026-05-05 14:35 | 39.49876 | 2.91969 | 3192 ft | 220 kts | 63° |
| 2026-05-05 14:35 | 39.50574 | 2.93742 | 3204 ft | 221 kts | 62° |
| 2026-05-05 14:35 | 39.51271 | 2.95512 | 3193 ft | 224 kts | 62° |
| 2026-05-05 14:36 | 39.51981 | 2.97314 | 3201 ft | 225 kts | 63° |
| 2026-05-05 14:36 | 39.52689 | 2.99121 | 3198 ft | 224 kts | 63° |
| 2026-05-05 14:36 | 39.53390 | 3.00910 | 3185 ft | 222 kts | 62° |
| 2026-05-05 14:36 | 39.54093 | 3.02700 | 3186 ft | 225 kts | 62° |
| 2026-05-05 14:37 | 39.55084 | 3.04236 | 3095 ft | 224 kts | 34° |
| 2026-05-05 14:37 | 39.56504 | 3.04940 | 2991 ft | 217 kts | 3° |
| 2026-05-05 14:37 | 39.57953 | 3.04688 | 2875 ft | 206 kts | 336° |
| 2026-05-05 14:37 | 39.59228 | 3.03913 | 2778 ft | 199 kts | 324° |
| 2026-05-05 14:38 | 39.60326 | 3.02840 | 2685 ft | 197 kts | 313° |
| 2026-05-05 14:38 | 39.61312 | 3.01608 | 2554 ft | 194 kts | 312° |
| 2026-05-05 14:38 | 39.62238 | 3.00410 | 2508 ft | 185 kts | 309° |
| 2026-05-05 14:38 | 39.63108 | 2.99239 | 2508 ft | 182 kts | 308° |
| 2026-05-05 14:39 | 39.63970 | 2.98036 | 2502 ft | 182 kts | 310° |
| 2026-05-05 14:39 | 39.64611 | 2.96674 | 2468 ft | 174 kts | 275° |
| 2026-05-05 14:39 | 39.64306 | 2.95238 | 2525 ft | 170 kts | 237° |
| 2026-05-05 14:39 | 39.63783 | 2.93842 | 2497 ft | 171 kts | 246° |
| 2026-05-05 14:40 | 39.63261 | 2.92509 | 2489 ft | 160 kts | 237° |
| 2026-05-05 14:40 | 39.62684 | 2.91302 | 2473 ft | 154 kts | 237° |
| 2026-05-05 14:40 | 39.62128 | 2.90134 | 2440 ft | 155 kts | 237° |
| 2026-05-05 14:40 | 39.61572 | 2.88959 | 2269 ft | 151 kts | 236° |
| 2026-05-05 14:41 | 39.61045 | 2.87843 | 2096 ft | 139 kts | 236° |
| 2026-05-05 14:41 | 39.60553 | 2.86802 | 1897 ft | 133 kts | 236° |
| 2026-05-05 14:41 | 39.60071 | 2.85779 | 1747 ft | 136 kts | 236° |
| 2026-05-05 14:41 | 39.59567 | 2.84707 | 1491 ft | 141 kts | 238° |
| 2026-05-05 14:42 | 39.59092 | 2.83646 | 1354 ft | 134 kts | 239° |
| 2026-05-05 14:42 | 39.58602 | 2.82590 | 1106 ft | 139 kts | 235° |
| 2026-05-05 14:42 | 39.58069 | 2.81530 | 1002 ft | 141 kts | 236° |
| 2026-05-05 14:42 | 39.57538 | 2.80451 | 850 ft | 143 kts | 237° |
| 2026-05-05 14:43 | 39.57036 | 2.79350 | 672 ft | 141 kts | 238° |
| 2026-05-05 14:43 | 39.56536 | 2.78265 | 465 ft | 139 kts | 237° |
| 2026-05-05 14:43 | 39.56032 | 2.77203 | 268 ft | 139 kts | 236° |
| 2026-05-05 14:43 | 39.55529 | 2.76136 | 71 ft | 137 kts | 237° |
| 2026-05-05 14:44 | 39.55063 | 2.75148 | 37 ft | 114 kts | 238° |
| 2026-05-05 14:44 | 39.54727 | 2.74440 | 37 ft | 71 kts | 238° |
| 2026-05-05 14:44 | 39.54541 | 2.74049 | 37 ft | 40 kts | 238° |
| 2026-05-05 14:44 | 39.54446 | 2.73851 | 37 ft | 17 kts | 238° |
| 2026-05-05 14:45 | 39.54453 | 2.73751 | 37 ft | 9 kts | 320° |
| 2026-05-05 14:45 | 39.54467 | 2.73739 | 37 ft | 0 kts | 333° |
| 2026-05-05 14:45 | 39.54476 | 2.73732 | 37 ft | 3 kts | 332° |
| 2026-05-05 14:45 | 39.54503 | 2.73712 | 37 ft | 3 kts | 328° |
| 2026-05-05 14:46 | 39.54527 | 2.73691 | 36 ft | 4 kts | 327° |
| 2026-05-05 14:46 | 39.54566 | 2.73680 | 37 ft | 7 kts | 15° |
| 2026-05-05 14:46 | 39.54608 | 2.73741 | 37 ft | 11 kts | 60° |
| 2026-05-05 14:46 | 39.54649 | 2.73831 | 37 ft | 12 kts | 58° |
| 2026-05-05 14:47 | 39.54689 | 2.73917 | 37 ft | 11 kts | 58° |
| 2026-05-05 14:47 | 39.54730 | 2.74001 | 36 ft | 10 kts | 58° |
| 2026-05-05 14:47 | 39.54764 | 2.74074 | 37 ft | 9 kts | 59° |
| 2026-05-05 14:47 | 39.54809 | 2.74126 | 37 ft | 9 kts | 8° |
| 2026-05-05 14:48 | 39.54868 | 2.74092 | 37 ft | 10 kts | 329° |
| 2026-05-05 14:48 | 39.54935 | 2.74040 | 37 ft | 11 kts | 329° |
| 2026-05-05 14:48 | 39.55005 | 2.73985 | 37 ft | 12 kts | 328° |
| 2026-05-05 14:48 | 39.55070 | 2.73933 | 37 ft | 11 kts | 328° |
| 2026-05-05 14:49 | 39.55142 | 2.73877 | 37 ft | 13 kts | 328° |
| 2026-05-05 14:49 | 39.55224 | 2.73812 | 37 ft | 13 kts | 328° |
| 2026-05-05 14:49 | 39.55301 | 2.73751 | 37 ft | 14 kts | 329° |
| 2026-05-05 14:49 | 39.55389 | 2.73682 | 37 ft | 16 kts | 328° |
| 2026-05-05 14:50 | 39.55483 | 2.73608 | 37 ft | 14 kts | 328° |
| 2026-05-05 14:50 | 39.55473 | 2.73510 | 36 ft | 12 kts | 238° |
| 2026-05-05 14:50 | 39.55428 | 2.73414 | 37 ft | 13 kts | 238° |
| 2026-05-05 14:50 | 39.55378 | 2.73307 | 35 ft | 14 kts | 238° |
| 2026-05-05 14:51 | 39.55311 | 2.73244 | 37 ft | 11 kts | 194° |
| 2026-05-05 14:51 | 39.55274 | 2.73231 | 36 ft | 6 kts | 196° |
| 2026-05-05 14:51 | 39.55253 | 2.73223 | 37 ft | 1 kts | 196° |